createdAt,value
2023-04-14T00:00:34.436Z,4.92
2023-04-14T00:01:36.380Z,4.86
2023-04-14T00:02:38.354Z,4.85
2023-04-14T00:03:40.422Z,4.80
2023-04-14T00:04:42.447Z,4.77
2023-04-14T00:05:44.327Z,4.67
2023-04-14T00:06:46.105Z,4.60
2023-04-14T00:07:47.906Z,4.63
2023-04-14T00:08:49.693Z,4.64
2023-04-14T00:09:51.453Z,4.66
2023-04-14T00:10:53.449Z,4.60
2023-04-14T00:11:55.159Z,4.46
2023-04-14T00:12:57.004Z,4.39
2023-04-14T00:14:01.384Z,4.40
2023-04-14T00:15:03.524Z,4.40
2023-04-14T00:16:05.457Z,4.43
2023-04-14T00:17:07.332Z,4.33
2023-04-14T00:18:09.181Z,4.25
2023-04-14T00:19:11.405Z,4.26
2023-04-14T00:20:13.437Z,4.20
2023-04-14T00:21:15.209Z,4.15
2023-04-14T00:22:17.059Z,4.07
2023-04-14T00:23:18.883Z,4.08
2023-04-14T00:24:20.871Z,4.16
2023-04-14T00:25:22.656Z,4.16
2023-04-14T00:26:24.783Z,4.19
2023-04-14T00:27:26.636Z,4.19
2023-04-14T00:28:28.365Z,4.11
2023-04-14T00:29:30.089Z,4.07
2023-04-14T00:30:31.896Z,4.01
2023-04-14T00:31:33.698Z,4.04
2023-04-14T00:32:35.576Z,4.12
2023-04-14T00:33:37.471Z,4.13
2023-04-14T00:34:39.223Z,4.10
2023-04-14T00:35:41.241Z,4.04
2023-04-14T00:36:43.737Z,4.05
2023-04-14T00:37:45.565Z,4.13
2023-04-14T00:38:47.384Z,4.19
2023-04-14T00:39:49.091Z,4.26
2023-04-14T00:40:50.887Z,4.29
2023-04-14T00:41:52.748Z,4.28
2023-04-14T00:42:54.528Z,4.27
2023-04-14T00:43:56.285Z,4.27
2023-04-14T00:44:58.130Z,4.27
2023-04-14T00:45:59.895Z,4.30
2023-04-14T00:47:02.335Z,4.32
2023-04-14T00:48:04.354Z,4.33
2023-04-14T00:49:07.083Z,4.21
2023-04-14T00:50:12.044Z,4.15
2023-04-14T00:51:14.214Z,4.09
2023-04-14T00:52:16.004Z,4.13
2023-04-14T00:53:17.858Z,4.13
2023-04-14T00:54:20.522Z,4.11
2023-04-14T00:55:22.401Z,4.15
2023-04-14T00:56:26.629Z,4.18
2023-04-14T00:57:29.826Z,4.20
2023-04-14T00:58:31.942Z,4.21
2023-04-14T00:59:33.866Z,4.22
2023-04-14T01:00:36.465Z,4.22
2023-04-14T01:01:38.386Z,4.16
2023-04-14T01:02:40.585Z,4.10
2023-04-14T01:03:42.802Z,4.04
2023-04-14T01:04:53.747Z,4.05
2023-04-14T01:05:57.127Z,4.10
2023-04-14T01:06:59.073Z,4.08
2023-04-14T01:08:01.821Z,4.06
2023-04-14T01:09:04.576Z,4.08
2023-04-14T01:10:06.832Z,4.05
2023-04-14T01:11:38.252Z,3.95
2023-04-14T01:13:02.080Z,3.95
2023-04-14T01:14:11.927Z,4.01
2023-04-14T01:15:32.911Z,4.06
2023-04-14T01:16:37.211Z,4.01
2023-04-14T01:17:46.589Z,3.93
2023-04-14T01:19:11.638Z,3.78
2023-04-14T01:20:33.894Z,3.68
2023-04-14T01:21:38.797Z,3.62
2023-04-14T01:22:48.025Z,3.58
2023-04-14T01:24:01.221Z,3.61
2023-04-14T01:25:10.594Z,3.63
2023-04-14T01:26:19.986Z,3.69
2023-04-14T01:27:24.788Z,3.73
2023-04-14T01:28:26.698Z,3.78
2023-04-14T01:29:49.144Z,3.77
2023-04-14T01:31:02.988Z,3.75
2023-04-14T01:32:12.321Z,3.73
2023-04-14T01:33:17.770Z,3.75
2023-04-14T01:34:25.626Z,3.80
2023-04-14T01:35:49.155Z,3.87
2023-04-14T01:37:11.688Z,3.86
2023-04-14T01:38:19.191Z,3.84
2023-04-14T01:39:23.320Z,3.81
2023-04-14T01:40:27.584Z,3.80
2023-04-14T01:41:30.537Z,3.80
2023-04-14T01:42:36.444Z,3.76
2023-04-14T01:43:40.262Z,3.78
2023-04-14T01:44:43.191Z,3.80
2023-04-14T01:45:52.894Z,3.75
2023-04-14T01:46:57.581Z,3.64
2023-04-14T01:47:59.717Z,3.65
2023-04-14T01:49:02.166Z,3.69
2023-04-14T01:50:05.798Z,3.67
2023-04-14T01:51:08.571Z,3.62
2023-04-14T01:52:11.735Z,3.60
2023-04-14T01:53:15.395Z,3.59
2023-04-14T01:54:18.713Z,3.59
2023-04-14T01:55:21.125Z,3.58
2023-04-14T01:56:23.899Z,3.58
2023-04-14T01:57:26.864Z,3.63
2023-04-14T01:58:30.861Z,3.68
2023-04-14T01:59:33.948Z,3.72
2023-04-14T02:00:37.414Z,3.75
2023-04-14T02:01:40.370Z,3.79
2023-04-14T02:02:44.778Z,3.80
2023-04-14T02:03:49.556Z,3.77
2023-04-14T02:04:52.457Z,3.67
2023-04-14T02:05:55.712Z,3.65
2023-04-14T02:06:59.192Z,3.67
2023-04-14T02:08:01.855Z,3.68
2023-04-14T02:09:05.907Z,3.69
2023-04-14T02:10:11.259Z,3.67
2023-04-14T02:11:14.621Z,3.66
2023-04-14T02:12:19.053Z,3.62
2023-04-14T02:13:22.577Z,3.65
2023-04-14T02:14:24.790Z,3.68
2023-04-14T02:15:28.811Z,3.67
2023-04-14T02:16:30.716Z,3.64
2023-04-14T02:17:33.428Z,3.57
2023-04-14T02:18:36.086Z,3.58
2023-04-14T02:19:38.570Z,3.63
2023-04-14T02:20:45.257Z,3.66
2023-04-14T02:21:48.295Z,3.70
2023-04-14T02:22:50.172Z,3.73
2023-04-14T02:23:51.937Z,3.72
2023-04-14T02:24:55.400Z,3.73
2023-04-14T02:26:11.350Z,3.73
2023-04-14T02:27:22.728Z,3.72
2023-04-14T02:28:28.336Z,3.68
2023-04-14T02:29:30.966Z,3.63
2023-04-14T02:30:35.859Z,3.58
2023-04-14T02:31:40.205Z,3.54
2023-04-14T02:32:45.505Z,3.52
2023-04-14T02:33:51.868Z,3.48
2023-04-14T02:35:01.780Z,3.50
2023-04-14T02:36:11.383Z,3.51
2023-04-14T02:37:17.061Z,3.55
2023-04-14T02:38:21.281Z,3.54
2023-04-14T02:39:43.027Z,3.57
2023-04-14T02:40:45.275Z,3.62
2023-04-14T02:41:48.983Z,3.66
2023-04-14T02:42:53.111Z,3.69
2023-04-14T02:44:04.571Z,3.72
2023-04-14T02:45:07.500Z,3.72
2023-04-14T02:46:10.037Z,3.75
2023-04-14T02:47:14.000Z,3.77
2023-04-14T02:48:16.824Z,3.75
2023-04-14T02:49:19.864Z,3.63
2023-04-14T02:50:22.341Z,3.60
2023-04-14T02:51:24.469Z,3.60
2023-04-14T02:52:29.881Z,3.63
2023-04-14T02:53:32.368Z,3.63
2023-04-14T02:54:36.113Z,3.57
2023-04-14T02:55:38.230Z,3.55
2023-04-14T02:56:40.519Z,3.55
2023-04-14T02:57:42.504Z,3.59
2023-04-14T02:58:44.430Z,3.59
2023-04-14T02:59:47.745Z,3.57
2023-04-14T03:00:50.271Z,3.55
2023-04-14T03:01:53.001Z,3.58
2023-04-14T03:02:56.293Z,3.58
2023-04-14T03:03:58.301Z,3.58
2023-04-14T03:05:00.923Z,3.62
2023-04-14T03:06:03.902Z,3.65
2023-04-14T03:07:06.995Z,3.67
2023-04-14T03:08:10.796Z,3.71
2023-04-14T03:09:13.209Z,3.73
2023-04-14T03:10:15.010Z,3.72
2023-04-14T03:11:18.278Z,3.66
2023-04-14T03:12:20.603Z,3.63
2023-04-14T03:13:24.395Z,3.64
2023-04-14T03:14:26.891Z,3.67
2023-04-14T03:15:28.739Z,3.67
2023-04-14T03:16:30.940Z,3.71
2023-04-14T03:17:33.281Z,3.70
2023-04-14T03:18:35.711Z,3.69
2023-04-14T03:19:41.909Z,3.70
2023-04-14T03:20:46.177Z,3.72
2023-04-14T03:21:49.775Z,3.71
2023-04-14T03:22:58.041Z,3.64
2023-04-14T03:24:00.218Z,3.57
2023-04-14T03:25:02.129Z,3.57
2023-04-14T03:26:04.046Z,3.59
2023-04-14T03:27:09.098Z,3.52
2023-04-14T03:28:17.335Z,3.56
2023-04-14T03:29:21.894Z,3.57
2023-04-14T03:30:26.160Z,3.63
2023-04-14T03:31:32.865Z,3.64
2023-04-14T03:32:41.848Z,3.65
2023-04-14T03:33:46.378Z,3.67
2023-04-14T03:34:50.008Z,3.69
2023-04-14T03:35:53.808Z,3.69
2023-04-14T03:36:57.325Z,3.68
2023-04-14T03:38:01.251Z,3.62
2023-04-14T03:39:05.120Z,3.56
2023-04-14T03:40:11.550Z,3.54
2023-04-14T03:41:14.362Z,3.47
2023-04-14T03:42:16.973Z,3.38
2023-04-14T03:43:24.004Z,3.37
2023-04-14T03:44:26.475Z,3.40
2023-04-14T03:45:28.622Z,3.40
2023-04-14T03:46:30.987Z,3.46
2023-04-14T03:47:33.479Z,3.43
2023-04-14T03:48:37.041Z,3.43
2023-04-14T03:49:39.738Z,3.47
2023-04-14T03:50:43.270Z,3.51
2023-04-14T03:51:46.113Z,3.54
2023-04-14T03:52:50.650Z,3.52
2023-04-14T03:53:54.082Z,3.52
2023-04-14T03:54:59.247Z,3.52
2023-04-14T03:56:02.705Z,3.49
2023-04-14T03:57:06.461Z,3.44
2023-04-14T03:58:09.146Z,3.38
2023-04-14T03:59:13.635Z,3.40
2023-04-14T04:00:16.649Z,3.44
2023-04-14T04:01:20.010Z,3.47
2023-04-14T04:02:22.772Z,3.37
2023-04-14T04:03:26.088Z,3.36
2023-04-14T04:04:29.404Z,3.35
2023-04-14T04:05:31.331Z,3.35
2023-04-14T04:06:33.745Z,3.36
2023-04-14T04:07:36.003Z,3.35
2023-04-14T04:08:38.173Z,3.37
2023-04-14T04:09:40.079Z,3.38
2023-04-14T04:10:42.855Z,3.38
2023-04-14T04:11:47.271Z,3.38
2023-04-14T04:12:49.804Z,3.40
2023-04-14T04:13:52.003Z,3.44
2023-04-14T04:14:53.958Z,3.46
2023-04-14T04:15:55.973Z,3.49
2023-04-14T04:17:00.092Z,3.51
2023-04-14T04:18:03.586Z,3.55
2023-04-14T04:19:06.433Z,3.56
2023-04-14T04:20:10.612Z,3.56
2023-04-14T04:21:14.711Z,3.50
2023-04-14T04:22:17.719Z,3.45
2023-04-14T04:23:21.238Z,3.48
2023-04-14T04:24:24.711Z,3.49
2023-04-14T04:25:26.612Z,3.51
2023-04-14T04:26:29.034Z,3.52
2023-04-14T04:27:30.888Z,3.52
2023-04-14T04:28:32.915Z,3.50
2023-04-14T04:29:34.742Z,3.49
2023-04-14T04:30:39.308Z,3.49
2023-04-14T04:31:41.198Z,3.48
2023-04-14T04:32:43.054Z,3.45
2023-04-14T04:33:46.870Z,3.44
2023-04-14T04:34:50.126Z,3.45
2023-04-14T04:35:53.092Z,3.36
2023-04-14T04:36:54.866Z,3.19
2023-04-14T04:37:58.642Z,3.09
2023-04-14T04:39:00.529Z,3.07
2023-04-14T04:40:04.226Z,3.08
2023-04-14T04:41:06.065Z,3.03
2023-04-14T04:42:08.005Z,3.04
2023-04-14T04:43:09.814Z,3.05
2023-04-14T04:44:11.621Z,3.05
2023-04-14T04:45:13.404Z,3.03
2023-04-14T04:46:33.861Z,3.04
2023-04-14T04:47:35.783Z,3.06
2023-04-14T04:48:37.569Z,3.08
2023-04-14T04:49:39.293Z,3.11
2023-04-14T04:50:42.198Z,3.14
2023-04-14T04:51:44.589Z,3.19
2023-04-14T04:52:46.520Z,3.23
2023-04-14T04:53:48.349Z,3.25
2023-04-14T04:54:52.736Z,3.24
2023-04-14T04:55:54.525Z,3.28
2023-04-14T04:56:57.810Z,3.31
2023-04-14T04:57:59.588Z,3.25
2023-04-14T04:59:02.048Z,3.28
2023-04-14T05:00:04.715Z,3.34
2023-04-14T05:01:10.553Z,3.32
2023-04-14T05:02:12.658Z,3.32
2023-04-14T05:03:14.585Z,3.35
2023-04-14T05:04:16.565Z,3.35
2023-04-14T05:05:18.322Z,3.31
2023-04-14T05:06:20.283Z,3.29
2023-04-14T05:07:22.655Z,3.27
2023-04-14T05:08:24.379Z,3.29
2023-04-14T05:09:26.228Z,3.27
2023-04-14T05:10:28.057Z,3.27
2023-04-14T05:11:29.914Z,3.26
2023-04-14T05:12:31.699Z,3.31
2023-04-14T05:13:33.478Z,3.26
2023-04-14T05:14:35.273Z,3.19
2023-04-14T05:15:37.064Z,3.20
2023-04-14T05:16:38.968Z,3.22
2023-04-14T05:17:40.783Z,3.19
2023-04-14T05:18:43.048Z,3.18
2023-04-14T05:19:44.980Z,3.16
2023-04-14T05:20:46.916Z,3.12
2023-04-14T05:21:48.752Z,3.12
2023-04-14T05:22:50.586Z,3.17
2023-04-14T05:23:52.381Z,3.22
2023-04-14T05:24:54.239Z,3.26
2023-04-14T05:25:59.550Z,3.27
2023-04-14T05:27:14.355Z,3.32
2023-04-14T05:28:17.040Z,3.35
2023-04-14T05:29:18.890Z,3.38
2023-04-14T05:30:20.712Z,3.42
2023-04-14T05:31:22.549Z,3.41
2023-04-14T05:32:24.809Z,3.44
2023-04-14T05:33:27.547Z,3.46
2023-04-14T05:34:29.313Z,3.45
2023-04-14T05:35:31.262Z,3.42
2023-04-14T05:36:33.154Z,3.40
2023-04-14T05:37:36.253Z,3.34
2023-04-14T05:38:41.191Z,3.31
2023-04-14T05:39:43.012Z,3.28
2023-04-14T05:40:45.479Z,3.20
2023-04-14T05:41:47.328Z,3.21
2023-04-14T05:42:49.096Z,3.18
2023-04-14T05:43:50.985Z,3.17
2023-04-14T05:44:52.784Z,3.11
2023-04-14T05:45:54.708Z,3.13
2023-04-14T05:46:56.676Z,3.17
2023-04-14T05:47:58.705Z,3.17
2023-04-14T05:49:02.134Z,3.14
2023-04-14T05:50:04.442Z,3.15
2023-04-14T05:51:06.628Z,3.18
2023-04-14T05:52:08.843Z,3.23
2023-04-14T05:53:12.188Z,3.28
2023-04-14T05:54:14.546Z,3.34
2023-04-14T05:55:16.603Z,3.38
2023-04-14T05:56:18.481Z,3.44
2023-04-14T05:57:20.217Z,3.48
2023-04-14T05:58:22.123Z,3.49
2023-04-14T05:59:23.881Z,3.50
2023-04-14T06:00:25.884Z,3.44
2023-04-14T06:01:27.943Z,3.38
2023-04-14T06:02:29.839Z,3.37
2023-04-14T06:04:34.414Z,3.42
2023-04-14T06:05:36.268Z,3.44
2023-04-14T06:06:38.090Z,3.42
2023-04-14T06:07:42.211Z,3.43
2023-04-14T06:08:44.008Z,3.40
2023-04-14T06:09:48.380Z,3.29
2023-04-14T06:10:50.239Z,3.29
2023-04-14T06:11:52.052Z,3.34
2023-04-14T06:12:53.824Z,3.38
2023-04-14T06:13:55.536Z,3.40
2023-04-14T06:14:57.367Z,3.44
2023-04-14T06:15:59.740Z,3.44
2023-04-14T06:17:01.570Z,3.47
2023-04-14T06:18:03.523Z,3.47
2023-04-14T06:19:05.413Z,3.49
2023-04-14T06:20:07.884Z,3.48
2023-04-14T06:21:10.056Z,3.46
2023-04-14T06:22:14.135Z,3.40
2023-04-14T06:23:16.048Z,3.36
2023-04-14T06:24:18.017Z,3.31
2023-04-14T06:25:19.821Z,3.30
2023-04-14T06:26:22.682Z,3.31
2023-04-14T06:27:25.540Z,3.37
2023-04-14T06:28:27.329Z,3.43
2023-04-14T06:29:29.134Z,3.48
2023-04-14T06:30:32.625Z,3.51
2023-04-14T06:31:34.651Z,3.51
2023-04-14T06:32:36.495Z,3.46
2023-04-14T06:33:38.436Z,3.46
2023-04-14T06:34:40.275Z,3.50
2023-04-14T06:35:43.689Z,3.52
2023-04-14T06:36:46.139Z,3.53
2023-04-14T06:37:47.902Z,3.53
2023-04-14T06:38:49.678Z,3.53
2023-04-14T06:39:51.637Z,3.49
2023-04-14T06:40:53.553Z,3.49
2023-04-14T06:41:55.743Z,3.54
2023-04-14T06:42:57.615Z,3.56
2023-04-14T06:43:59.415Z,3.59
2023-04-14T06:45:01.224Z,3.55
2023-04-14T06:46:03.052Z,3.54
2023-04-14T06:47:04.934Z,3.52
2023-04-14T06:48:07.226Z,3.48
2023-04-14T06:49:09.082Z,3.47
2023-04-14T06:50:11.141Z,3.47
2023-04-14T06:51:13.966Z,3.46
2023-04-14T06:52:15.716Z,3.42
2023-04-14T06:53:17.523Z,3.42
2023-04-14T06:54:19.315Z,3.41
2023-04-14T06:55:21.994Z,3.39
2023-04-14T06:56:23.757Z,3.37
2023-04-14T06:57:26.805Z,3.37
2023-04-14T06:58:29.080Z,3.31
2023-04-14T06:59:31.489Z,3.31
2023-04-14T07:00:33.250Z,3.30
2023-04-14T07:01:35.085Z,3.28
2023-04-14T07:02:37.103Z,3.32
2023-04-14T07:03:39.140Z,3.36
2023-04-14T07:04:40.984Z,3.37
2023-04-14T07:05:43.134Z,3.39
2023-04-14T07:06:44.885Z,3.42
2023-04-14T07:07:46.710Z,3.43
2023-04-14T07:08:48.529Z,3.36
2023-04-14T07:09:50.546Z,3.34
2023-04-14T07:10:59.389Z,3.32
2023-04-14T07:12:02.280Z,3.38
2023-04-14T07:13:04.171Z,3.37
2023-04-14T07:14:06.395Z,3.40
2023-04-14T07:15:08.326Z,3.45
2023-04-14T07:16:10.183Z,3.47
2023-04-14T07:17:12.023Z,3.42
2023-04-14T07:18:13.977Z,3.38
2023-04-14T07:19:15.944Z,3.39
2023-04-14T07:20:17.743Z,3.37
2023-04-14T07:21:19.590Z,3.35
2023-04-14T07:22:21.584Z,3.40
2023-04-14T07:23:23.426Z,3.46
2023-04-14T07:24:25.283Z,3.50
2023-04-14T07:25:27.635Z,3.54
2023-04-14T07:26:29.354Z,3.55
2023-04-14T07:27:32.079Z,3.54
2023-04-14T07:28:33.919Z,3.53
2023-04-14T07:29:35.852Z,3.52
2023-04-14T07:30:37.664Z,3.56
2023-04-14T07:31:40.339Z,3.61
2023-04-14T07:32:42.613Z,3.60
2023-04-14T07:33:44.444Z,3.58
2023-04-14T07:34:46.707Z,3.55
2023-04-14T07:36:01.287Z,3.52
2023-04-14T07:37:04.406Z,3.51
2023-04-14T07:38:07.058Z,3.48
2023-04-14T07:39:08.875Z,3.52
2023-04-14T07:40:10.799Z,3.54
2023-04-14T07:41:12.645Z,3.58
2023-04-14T07:42:14.573Z,3.62
2023-04-14T07:43:16.412Z,3.64
2023-04-14T07:44:18.174Z,3.62
2023-04-14T07:45:20.060Z,3.51
2023-04-14T07:46:22.358Z,3.45
2023-04-14T07:47:24.220Z,3.48
2023-04-14T07:48:25.984Z,3.47
2023-04-14T07:49:27.734Z,3.40
2023-04-14T07:50:29.534Z,3.43
2023-04-14T07:51:31.666Z,3.49
2023-04-14T07:52:33.453Z,3.51
2023-04-14T07:53:40.676Z,3.53
2023-04-14T07:54:42.566Z,3.58
2023-04-14T07:55:44.372Z,3.60
2023-04-14T07:56:46.849Z,3.58
2023-04-14T07:57:48.716Z,3.59
2023-04-14T07:58:50.477Z,3.59
2023-04-14T07:59:52.347Z,3.57
2023-04-14T08:00:54.795Z,3.59
2023-04-14T08:01:57.070Z,3.65
2023-04-14T08:02:59.038Z,3.66
2023-04-14T08:04:01.214Z,3.68
2023-04-14T08:05:04.061Z,3.70
2023-04-14T08:06:07.035Z,3.72
2023-04-14T08:07:08.908Z,3.73
2023-04-14T08:08:10.770Z,3.73
2023-04-14T08:09:12.634Z,3.69
2023-04-14T08:10:14.406Z,3.68
2023-04-14T08:11:16.338Z,3.66
2023-04-14T08:12:18.175Z,3.65
2023-04-14T08:13:19.912Z,3.61
2023-04-14T08:14:21.737Z,3.57
2023-04-14T08:15:23.655Z,3.58
2023-04-14T08:16:25.601Z,3.57
2023-04-14T08:17:27.554Z,3.55
2023-04-14T08:18:29.304Z,3.57
2023-04-14T08:19:33.996Z,3.59
2023-04-14T08:20:35.748Z,3.63
2023-04-14T08:21:37.589Z,3.68
2023-04-14T08:22:39.439Z,3.72
2023-04-14T08:23:41.178Z,3.77
2023-04-14T08:24:42.906Z,3.80
2023-04-14T08:25:44.911Z,3.83
2023-04-14T08:26:46.825Z,3.83
2023-04-14T08:27:48.621Z,3.80
2023-04-14T08:28:51.066Z,3.69
2023-04-14T08:29:52.910Z,3.56
2023-04-14T08:30:54.678Z,3.51
2023-04-14T08:31:56.501Z,3.50
2023-04-14T08:32:59.240Z,3.54
2023-04-14T08:34:01.256Z,3.52
2023-04-14T08:35:36.067Z,3.55
2023-04-14T08:36:25.455Z,3.60
2023-04-14T08:37:27.363Z,3.63
2023-04-14T08:38:29.422Z,3.62
2023-04-14T08:39:31.469Z,3.61
2023-04-14T08:40:38.838Z,3.59
2023-04-14T08:41:41.106Z,3.58
2023-04-14T08:42:42.913Z,3.60
2023-04-14T08:43:45.240Z,3.67
2023-04-14T08:44:47.702Z,3.73
2023-04-14T08:45:53.259Z,3.76
2023-04-14T08:46:56.309Z,3.77
2023-04-14T08:47:59.368Z,3.77
2023-04-14T08:49:06.038Z,3.75
2023-04-14T08:50:13.155Z,3.79
2023-04-14T08:51:21.790Z,3.81
2023-04-14T08:52:24.694Z,3.84
2023-04-14T08:53:28.004Z,3.86
2023-04-14T08:54:30.294Z,3.88
2023-04-14T08:55:36.776Z,3.86
2023-04-14T08:56:39.566Z,3.85
2023-04-14T08:57:43.818Z,3.81
2023-04-14T08:58:46.081Z,3.78
2023-04-14T08:59:48.184Z,3.76
2023-04-14T09:00:49.964Z,3.74
2023-04-14T09:01:53.118Z,3.78
2023-04-14T09:02:57.022Z,3.84
2023-04-14T09:03:59.288Z,3.86
2023-04-14T09:05:02.839Z,3.83
2023-04-14T09:06:06.500Z,3.65
2023-04-14T09:07:08.460Z,3.59
2023-04-14T09:08:11.165Z,3.57
2023-04-14T09:09:13.190Z,3.56
2023-04-14T09:10:15.250Z,3.54
2023-04-14T09:11:17.176Z,3.55
2023-04-14T09:12:21.223Z,3.61
2023-04-14T09:13:23.572Z,3.67
2023-04-14T09:14:26.390Z,3.71
2023-04-14T09:15:29.372Z,3.75
2023-04-14T09:16:32.196Z,3.80
2023-04-14T09:17:34.473Z,3.83
2023-04-14T09:18:36.620Z,3.89
2023-04-14T09:20:34.642Z,3.85
2023-04-14T09:21:30.043Z,3.86
2023-04-14T09:22:22.958Z,3.87
2023-04-14T09:23:25.839Z,3.89
2023-04-14T09:24:34.309Z,3.93
2023-04-14T09:25:36.788Z,3.93
2023-04-14T09:26:38.675Z,3.92
2023-04-14T09:27:40.655Z,3.94
2023-04-14T09:28:42.515Z,3.94
2023-04-14T09:29:44.651Z,3.93
2023-04-14T09:30:46.562Z,3.97
2023-04-14T09:31:48.476Z,3.88
2023-04-14T09:32:53.529Z,3.84
2023-04-14T09:33:55.575Z,3.89
2023-04-14T09:34:58.431Z,3.87
2023-04-14T09:36:00.632Z,3.88
2023-04-14T09:37:06.503Z,3.91
2023-04-14T09:38:08.307Z,3.88
2023-04-14T09:39:16.714Z,3.89
2023-04-14T09:40:31.377Z,3.87
2023-04-14T09:41:33.330Z,3.82
2023-04-14T09:42:39.896Z,3.76
2023-04-14T09:43:42.520Z,3.69
2023-04-14T09:44:54.798Z,3.67
2023-04-14T09:45:57.797Z,3.76
2023-04-14T09:47:05.603Z,3.79
2023-04-14T09:48:08.023Z,3.84
2023-04-14T09:49:09.898Z,3.87
2023-04-14T09:50:11.992Z,3.92
2023-04-14T09:51:14.594Z,3.94
2023-04-14T09:52:17.228Z,3.97
2023-04-14T09:53:24.998Z,3.98
2023-04-14T09:54:26.895Z,4.01
2023-04-14T09:55:28.649Z,4.03
2023-04-14T09:56:30.532Z,4.04
2023-04-14T09:57:32.427Z,4.01
2023-04-14T09:58:37.320Z,4.03
2023-04-14T09:59:39.363Z,3.98
2023-04-14T10:00:41.325Z,3.97
2023-04-14T10:01:45.714Z,3.97
2023-04-14T10:02:58.524Z,3.97
2023-04-14T10:04:02.411Z,3.96
2023-04-14T10:05:08.503Z,3.98
2023-04-14T10:06:15.526Z,3.97
2023-04-14T10:07:19.267Z,3.98
2023-04-14T10:08:21.087Z,4.00
2023-04-14T10:09:23.435Z,3.97
2023-04-14T10:10:25.193Z,3.92
2023-04-14T10:11:27.854Z,3.84
2023-04-14T10:12:29.581Z,3.84
2023-04-14T10:13:32.025Z,3.77
2023-04-14T10:14:33.940Z,3.76
2023-04-14T10:15:36.307Z,3.79
2023-04-14T10:16:38.338Z,3.80
2023-04-14T10:17:40.236Z,3.81
2023-04-14T10:18:42.358Z,3.86
2023-04-14T10:19:44.377Z,3.92
2023-04-14T10:20:47.126Z,3.97
2023-04-14T10:21:49.361Z,4.06
2023-04-14T10:22:52.187Z,4.11
2023-04-14T10:23:55.785Z,4.14
2023-04-14T10:24:59.030Z,4.13
2023-04-14T10:26:01.506Z,4.12
2023-04-14T10:27:04.137Z,4.13
2023-04-14T10:28:06.134Z,4.15
2023-04-14T10:29:07.888Z,4.11
2023-04-14T10:30:10.343Z,4.13
2023-04-14T10:31:14.345Z,4.16
2023-04-14T10:32:16.970Z,4.19
2023-04-14T10:33:19.218Z,4.18
2023-04-14T10:34:22.227Z,4.20
2023-04-14T10:35:24.251Z,4.20
2023-04-14T10:36:27.444Z,4.19
2023-04-14T10:37:29.266Z,4.21
2023-04-14T10:38:57.255Z,4.19
2023-04-14T10:39:59.813Z,4.21
2023-04-14T10:41:01.709Z,4.27
2023-04-14T10:42:03.518Z,4.30
2023-04-14T10:43:12.110Z,4.35
2023-04-14T10:44:23.699Z,4.39
2023-04-14T10:45:25.612Z,4.39
2023-04-14T10:46:42.376Z,4.33
2023-04-14T10:47:45.902Z,4.34
2023-04-14T10:48:48.863Z,4.31
2023-04-14T10:49:50.720Z,4.31
2023-04-14T10:50:56.646Z,4.30
2023-04-14T10:52:02.416Z,4.28
2023-04-14T10:53:07.223Z,4.25
2023-04-14T10:54:15.763Z,4.21
2023-04-14T10:55:21.614Z,4.14
2023-04-14T10:56:25.438Z,4.10
2023-04-14T10:57:28.128Z,4.11
2023-04-14T10:58:30.081Z,4.19
2023-04-14T10:59:32.317Z,4.24
2023-04-14T11:00:37.749Z,4.28
2023-04-14T11:01:41.716Z,4.34
2023-04-14T11:02:54.637Z,4.37
2023-04-14T11:03:57.461Z,4.40
2023-04-14T11:05:00.689Z,4.44
2023-04-14T11:06:02.481Z,4.50
2023-04-14T11:07:09.215Z,4.55
2023-04-14T11:08:19.847Z,4.61
2023-04-14T11:09:26.766Z,4.66
2023-04-14T11:10:30.730Z,4.69
2023-04-14T11:11:32.574Z,4.71
2023-04-14T11:12:42.632Z,4.76
2023-04-14T11:13:45.496Z,4.75
2023-04-14T11:14:47.449Z,4.75
2023-04-14T11:15:49.294Z,4.80
2023-04-14T11:17:02.557Z,4.84
2023-04-14T11:18:14.262Z,4.88
2023-04-14T11:19:16.627Z,4.92
2023-04-14T11:20:21.383Z,4.96
2023-04-14T11:21:23.323Z,4.97
2023-04-14T11:22:45.848Z,4.96
2023-04-14T11:23:49.537Z,4.97
2023-04-14T11:24:51.383Z,4.98
2023-04-14T11:25:53.955Z,5.02
2023-04-14T11:26:56.318Z,5.00
2023-04-14T11:28:01.668Z,5.02
2023-04-14T11:29:08.534Z,4.94
2023-04-14T11:30:14.993Z,4.87
2023-04-14T11:31:21.040Z,4.85
2023-04-14T11:32:24.984Z,4.87
2023-04-14T11:33:30.273Z,4.86
2023-04-14T11:34:33.082Z,4.86
2023-04-14T11:35:34.927Z,4.86
2023-04-14T11:36:37.463Z,4.85
2023-04-14T11:37:39.402Z,4.88
2023-04-14T11:38:43.143Z,4.89
2023-04-14T11:39:45.082Z,4.89
2023-04-14T11:40:50.249Z,4.90
2023-04-14T11:41:52.202Z,4.93
2023-04-14T11:42:55.694Z,4.93
2023-04-14T11:43:58.428Z,4.96
2023-04-14T11:45:00.415Z,4.95
2023-04-14T11:46:05.008Z,4.89
2023-04-14T11:47:06.834Z,4.88
2023-04-14T11:48:10.603Z,4.93
2023-04-14T11:49:12.499Z,4.95
2023-04-14T11:50:14.294Z,4.89
2023-04-14T11:51:18.794Z,4.92
2023-04-14T11:52:22.136Z,4.97
2023-04-14T11:53:23.972Z,5.02
2023-04-14T11:54:35.268Z,5.06
2023-04-14T11:55:37.232Z,5.08
2023-04-14T11:56:40.707Z,5.08
2023-04-14T11:57:45.974Z,5.07
2023-04-14T11:58:47.754Z,5.08
2023-04-14T11:59:50.431Z,5.09
2023-04-14T12:00:55.499Z,5.12
2023-04-14T12:01:58.743Z,5.16
2023-04-14T12:03:04.066Z,5.18
2023-04-14T12:04:06.722Z,5.20
2023-04-14T12:05:09.004Z,5.25
2023-04-14T12:06:10.970Z,5.27
2023-04-14T12:07:13.741Z,5.28
2023-04-14T12:08:15.668Z,5.26
2023-04-14T12:09:17.460Z,5.26
2023-04-14T12:10:19.676Z,5.27
2023-04-14T12:11:21.490Z,5.29
2023-04-14T12:12:23.228Z,5.17
2023-04-14T12:13:25.172Z,5.10
2023-04-14T12:14:27.017Z,5.10
2023-04-14T12:15:33.076Z,5.15
2023-04-14T12:16:35.121Z,5.18
2023-04-14T12:17:37.740Z,5.21
2023-04-14T12:18:40.000Z,5.23
2023-04-14T12:19:42.591Z,5.23
2023-04-14T12:21:01.489Z,5.27
2023-04-14T12:22:07.446Z,5.28
2023-04-14T12:23:09.282Z,5.27
2023-04-14T12:24:10.976Z,5.29
2023-04-14T12:25:12.869Z,5.29
2023-04-14T12:26:15.013Z,5.30
2023-04-14T12:27:20.647Z,5.34
2023-04-14T12:28:28.005Z,5.37
2023-04-14T12:29:30.229Z,5.33
2023-04-14T12:30:36.222Z,5.32
2023-04-14T12:31:42.208Z,5.30
2023-04-14T12:32:46.434Z,5.24
2023-04-14T12:33:50.412Z,5.24
2023-04-14T12:34:58.000Z,5.22
2023-04-14T12:36:06.502Z,5.20
2023-04-14T12:37:09.896Z,5.23
2023-04-14T12:38:15.106Z,5.26
2023-04-14T12:39:16.933Z,5.30
2023-04-14T12:40:36.850Z,5.33
2023-04-14T12:41:39.504Z,5.36
2023-04-14T12:42:54.452Z,5.36
2023-04-14T12:43:56.321Z,5.39
2023-04-14T12:44:59.356Z,5.43
2023-04-14T12:46:02.642Z,5.46
2023-04-14T12:47:04.463Z,5.49
2023-04-14T12:48:07.118Z,5.52
2023-04-14T12:49:28.829Z,5.56
2023-04-14T12:50:30.618Z,5.58
2023-04-14T12:51:38.862Z,5.59
2023-04-14T12:52:41.179Z,5.57
2023-04-14T12:53:47.209Z,5.57
2023-04-14T12:54:54.290Z,5.57
2023-04-14T12:56:13.440Z,5.54
2023-04-14T12:57:15.207Z,5.52
2023-04-14T12:58:16.958Z,5.49
2023-04-14T12:59:18.881Z,5.45
2023-04-14T13:00:24.892Z,5.43
2023-04-14T13:01:27.065Z,5.49
2023-04-14T13:02:30.086Z,5.53
2023-04-14T13:03:58.143Z,5.56
2023-04-14T13:05:00.196Z,5.50
2023-04-14T13:06:02.281Z,5.41
2023-04-14T13:07:04.356Z,5.36
2023-04-14T13:08:06.064Z,5.39
2023-04-14T13:09:07.791Z,5.43
2023-04-14T13:10:10.128Z,5.45
2023-04-14T13:11:13.628Z,5.50
2023-04-14T13:12:15.415Z,5.54
2023-04-14T13:13:17.788Z,5.60
2023-04-14T13:14:19.552Z,5.59
2023-04-14T13:15:31.111Z,5.58
2023-04-14T13:16:43.277Z,5.52
2023-04-14T13:17:45.220Z,5.51
2023-04-14T13:18:47.764Z,5.51
2023-04-14T13:19:49.799Z,5.56
2023-04-14T13:20:56.038Z,5.61
2023-04-14T13:21:57.821Z,5.67
2023-04-14T13:22:59.541Z,5.69
2023-04-14T13:24:01.303Z,5.73
2023-04-14T13:25:04.441Z,5.74
2023-04-14T13:26:06.176Z,5.74
2023-04-14T13:27:08.217Z,5.69
2023-04-14T13:28:10.012Z,5.71
2023-04-14T13:29:13.351Z,5.74
2023-04-14T13:30:15.220Z,5.76
2023-04-14T13:31:18.437Z,5.72
2023-04-14T13:32:20.424Z,5.63
2023-04-14T13:33:23.542Z,5.61
2023-04-14T13:34:25.373Z,5.64
2023-04-14T13:35:27.113Z,5.69
2023-04-14T13:36:29.000Z,5.71
2023-04-14T13:37:30.753Z,5.73
2023-04-14T13:38:33.709Z,5.72
2023-04-14T13:39:35.531Z,5.72
2023-04-14T13:40:37.267Z,5.76
2023-04-14T13:41:39.080Z,5.81
2023-04-14T13:42:41.554Z,5.84
2023-04-14T13:43:43.330Z,5.81
2023-04-14T13:44:45.331Z,5.81
2023-04-14T13:45:47.303Z,5.69
2023-04-14T13:46:51.626Z,5.68
2023-04-14T13:47:53.634Z,5.71
2023-04-14T13:48:55.683Z,5.72
2023-04-14T13:49:57.557Z,5.76
2023-04-14T13:50:59.825Z,5.78
2023-04-14T13:52:01.766Z,5.76
2023-04-14T13:53:03.785Z,5.77
2023-04-14T13:54:07.585Z,5.79
2023-04-14T13:55:10.166Z,5.80
2023-04-14T13:56:11.921Z,5.76
2023-04-14T13:57:13.686Z,5.81
2023-04-14T13:58:15.554Z,5.82
2023-04-14T13:59:18.604Z,5.84
2023-04-14T14:00:20.444Z,5.82
2023-04-14T14:01:22.286Z,5.79
2023-04-14T14:02:24.461Z,5.79
2023-04-14T14:03:28.469Z,5.79
2023-04-14T14:04:31.793Z,5.81
2023-04-14T14:05:34.028Z,5.76
2023-04-14T14:06:36.018Z,5.78
2023-04-14T14:07:38.451Z,5.82
2023-04-14T14:08:42.271Z,5.86